createdAt,value
2018-12-05T00:01:56.835Z,5.10
2018-12-05T00:04:33.980Z,5.00
2018-12-05T00:07:12.063Z,4.90
2018-12-05T00:09:52.759Z,4.80
2018-12-05T00:12:36.763Z,4.70
2018-12-05T00:15:13.372Z,4.60
2018-12-05T00:17:53.535Z,4.50
2018-12-05T00:20:29.801Z,4.40
2018-12-05T00:23:06.091Z,4.30
2018-12-05T00:25:41.959Z,4.20
2018-12-05T00:28:17.474Z,4.10
2018-12-05T00:30:51.760Z,3.90
2018-12-05T00:33:30.036Z,3.80
2018-12-05T00:36:07.531Z,3.90
2018-12-05T00:38:42.659Z,3.80
2018-12-05T00:41:23.431Z,3.70
2018-12-05T00:43:57.770Z,3.60
2018-12-05T00:46:49.703Z,3.50
2018-12-05T00:49:25.673Z,3.50
2018-12-05T00:52:07.809Z,3.40
2018-12-05T00:54:55.797Z,3.30
2018-12-05T00:57:33.285Z,3.20
2018-12-05T01:00:09.399Z,3.10
2018-12-05T01:02:45.287Z,3.00
2018-12-05T01:05:20.896Z,2.90
2018-12-05T01:07:55.104Z,2.80
2018-12-05T01:10:30.294Z,2.70
2018-12-05T01:13:06.013Z,2.60
2018-12-05T01:15:46.574Z,2.60
2018-12-05T01:18:20.730Z,2.60
2018-12-05T01:21:00.698Z,2.60
2018-12-05T01:23:36.364Z,2.50
2018-12-05T01:26:18.413Z,2.50
2018-12-05T01:28:56.703Z,2.50
2018-12-05T01:31:36.242Z,2.50
2018-12-05T01:34:12.519Z,2.40
2018-12-05T01:36:47.240Z,2.40
2018-12-05T01:39:24.747Z,2.30
2018-12-05T01:41:59.805Z,2.20
2018-12-05T01:44:34.976Z,2.20
2018-12-05T01:47:10.050Z,2.20
2018-12-05T01:49:45.170Z,2.20
2018-12-05T01:52:21.291Z,2.10
2018-12-05T01:54:55.545Z,2.10
2018-12-05T01:57:31.828Z,2.10
2018-12-05T02:00:09.787Z,2.10
2018-12-05T02:02:44.768Z,2.10
2018-12-05T02:05:20.014Z,2.00
2018-12-05T02:07:55.598Z,2.00
2018-12-05T02:10:30.340Z,1.90
2018-12-05T02:13:04.580Z,1.90
2018-12-05T02:15:39.138Z,1.90
2018-12-05T02:18:15.811Z,1.90
2018-12-05T02:21:01.734Z,1.90
2018-12-05T02:23:39.277Z,1.80
2018-12-05T02:26:14.388Z,1.80
2018-12-05T02:28:48.811Z,1.80
2018-12-05T02:31:22.990Z,1.80
2018-12-05T02:34:01.362Z,1.80
2018-12-05T02:36:49.078Z,1.80
2018-12-05T02:39:24.764Z,1.70
2018-12-05T02:41:59.148Z,1.70
2018-12-05T02:44:35.093Z,1.70
2018-12-05T02:47:09.775Z,1.60
2018-12-05T02:49:50.653Z,1.60
2018-12-05T02:52:26.261Z,1.50
2018-12-05T02:55:16.615Z,1.50
2018-12-05T02:57:54.167Z,1.40
2018-12-05T03:00:30.042Z,1.40
2018-12-05T03:03:06.951Z,1.30
2018-12-05T03:05:42.634Z,1.30
2018-12-05T03:08:20.547Z,1.20
2018-12-05T03:10:56.284Z,1.20
2018-12-05T03:13:30.419Z,1.20
2018-12-05T03:16:08.497Z,1.20
2018-12-05T03:18:44.157Z,1.10
2018-12-05T03:21:21.023Z,1.10
2018-12-05T03:23:56.177Z,1.00
2018-12-05T03:26:34.199Z,1.00
2018-12-05T03:29:10.505Z,1.00
2018-12-05T03:31:46.076Z,1.00
2018-12-05T03:34:21.709Z,1.00
2018-12-05T03:36:56.709Z,0.90
2018-12-05T03:39:42.077Z,0.90
2018-12-05T03:42:18.392Z,0.80
2018-12-05T03:44:54.996Z,0.80
2018-12-05T03:47:34.607Z,0.80
2018-12-05T03:50:19.654Z,0.80
2018-12-05T03:52:56.319Z,0.80
2018-12-05T03:55:42.432Z,0.80
2018-12-05T03:58:16.698Z,0.80
2018-12-05T04:00:53.215Z,0.70
2018-12-05T04:03:28.666Z,0.70
2018-12-05T04:06:06.676Z,0.70
2018-12-05T04:08:43.596Z,0.80
2018-12-05T04:11:17.824Z,0.80
2018-12-05T04:13:57.718Z,0.80
2018-12-05T04:16:35.447Z,0.90
2018-12-05T04:19:09.775Z,0.90
2018-12-05T04:21:44.124Z,0.90
2018-12-05T04:24:20.822Z,0.90
2018-12-05T04:26:55.067Z,0.90
2018-12-05T04:29:30.049Z,0.80
2018-12-05T04:32:05.195Z,0.80
2018-12-05T04:34:40.380Z,0.80
2018-12-05T04:37:17.027Z,0.80
2018-12-05T04:39:54.190Z,0.80
2018-12-05T04:42:29.070Z,0.80
2018-12-05T04:45:03.384Z,0.70
2018-12-05T04:47:37.669Z,0.70
2018-12-05T04:50:17.912Z,0.80
2018-12-05T04:52:52.908Z,0.80
2018-12-05T04:55:27.910Z,0.80
2018-12-05T04:58:05.330Z,0.80
2018-12-05T05:00:40.376Z,0.70
2018-12-05T05:03:15.467Z,0.70
2018-12-05T05:05:52.544Z,0.70
2018-12-05T05:08:26.756Z,0.60
2018-12-05T05:11:05.409Z,0.60
2018-12-05T05:13:39.782Z,0.50
2018-12-05T05:16:14.560Z,0.50
2018-12-05T05:18:51.864Z,0.40
2018-12-05T05:21:49.439Z,0.40
2018-12-05T05:24:23.670Z,0.40
2018-12-05T05:27:34.860Z,0.40
2018-12-05T05:30:05.248Z,0.30
2018-12-05T05:32:40.760Z,0.30
2018-12-05T05:35:18.471Z,0.20
2018-12-05T05:37:56.473Z,0.20
2018-12-05T05:40:31.515Z,0.20
2018-12-05T05:43:05.799Z,0.10
2018-12-05T05:45:45.563Z,0.00
2018-12-05T05:48:21.423Z,0.00
2018-12-05T05:50:56.771Z,-0.10
2018-12-05T05:53:40.200Z,-0.10
2018-12-05T05:56:20.116Z,-0.20
2018-12-05T05:58:57.227Z,-0.20
2018-12-05T06:01:31.763Z,-0.20
2018-12-05T06:04:08.026Z,-0.20
2018-12-05T06:06:42.470Z,-0.40
2018-12-05T06:09:17.374Z,-0.40
2018-12-05T06:12:05.189Z,-0.40
2018-12-05T06:15:29.124Z,-0.40
2018-12-05T06:18:05.511Z,-0.40
2018-12-05T06:20:40.921Z,-0.30
2018-12-05T06:23:15.632Z,-0.30
2018-12-05T06:25:50.250Z,-0.30
2018-12-05T06:28:25.819Z,-0.30
2018-12-05T06:31:02.925Z,-0.30
2018-12-05T06:33:38.199Z,-0.30
2018-12-05T06:36:12.393Z,-0.30
2018-12-05T06:38:59.689Z,-0.30
2018-12-05T06:41:34.928Z,-0.30
2018-12-05T06:44:10.695Z,-0.40
2018-12-05T06:46:47.416Z,-0.40
2018-12-05T06:49:24.418Z,-0.40
2018-12-05T06:54:51.480Z,-0.40
2018-12-05T06:57:27.607Z,-0.50
2018-12-05T07:00:01.812Z,-0.40
2018-12-05T07:02:40.468Z,-0.50
2018-12-05T07:05:16.330Z,-0.50
2018-12-05T07:08:03.176Z,-0.50
2018-12-05T07:10:40.800Z,-0.50
2018-12-05T07:13:16.156Z,-0.60
2018-12-05T07:15:51.640Z,-0.60
2018-12-05T07:18:26.736Z,-0.70
2018-12-05T07:21:04.513Z,-0.70
2018-12-05T07:23:48.138Z,-0.70
2018-12-05T07:26:24.710Z,-0.70
2018-12-05T07:28:59.660Z,-0.80
2018-12-05T07:31:33.919Z,-0.80
2018-12-05T07:34:08.272Z,-0.80
2018-12-05T07:36:44.675Z,-0.90
2018-12-05T07:39:25.346Z,-0.90
2018-12-05T07:42:02.272Z,-0.90
2018-12-05T07:44:40.922Z,-0.90
2018-12-05T07:47:15.156Z,-0.90
2018-12-05T07:49:49.869Z,-1.00
2018-12-05T07:52:26.469Z,-1.00
2018-12-05T07:55:02.217Z,-1.00
2018-12-05T07:57:37.839Z,-1.10
2018-12-05T08:00:13.718Z,-1.00
2018-12-05T08:02:48.010Z,-1.10
2018-12-05T08:05:26.215Z,-1.10
2018-12-05T08:08:02.353Z,-1.10
2018-12-05T08:10:38.733Z,-1.10
2018-12-05T08:13:13.812Z,-1.20
2018-12-05T08:15:48.099Z,-1.20
2018-12-05T08:18:24.404Z,-1.20
2018-12-05T08:21:46.036Z,-1.20
2018-12-05T08:24:19.919Z,-1.20
2018-12-05T08:26:58.780Z,-1.20
2018-12-05T08:29:33.690Z,-1.20
2018-12-05T08:32:10.938Z,-1.20
2018-12-05T08:34:45.023Z,-1.20
2018-12-05T08:37:19.761Z,-1.20
2018-12-05T08:39:55.307Z,-1.30
2018-12-05T08:42:33.710Z,-1.30
2018-12-05T08:45:10.824Z,-1.30
2018-12-05T08:47:44.960Z,-1.30
2018-12-05T08:50:19.213Z,-1.40
2018-12-05T08:53:12.629Z,-1.30
2018-12-05T08:55:46.816Z,-1.40
2018-12-05T08:58:22.282Z,-1.40
2018-12-05T09:00:56.454Z,-1.40
2018-12-05T09:03:32.211Z,-1.40
2018-12-05T09:06:07.392Z,-1.40
2018-12-05T09:08:43.470Z,-1.30
2018-12-05T09:11:26.349Z,-1.30
2018-12-05T09:14:00.451Z,-1.30
2018-12-05T09:16:35.675Z,-1.30
2018-12-05T09:19:11.322Z,-1.30
2018-12-05T09:22:03.581Z,-1.30
2018-12-05T09:27:59.246Z,-1.30
2018-12-05T09:30:42.657Z,-1.30
2018-12-05T09:33:31.126Z,-1.40
2018-12-05T09:36:15.083Z,-1.30
2018-12-05T09:38:51.060Z,-1.40
2018-12-05T09:41:48.330Z,-1.40
2018-12-05T09:44:35.895Z,-1.40
2018-12-05T09:47:21.554Z,-1.40
2018-12-05T09:50:12.267Z,-1.40
2018-12-05T09:53:06.527Z,-1.50
2018-12-05T09:55:59.471Z,-1.50
2018-12-05T09:58:35.123Z,-1.40
2018-12-05T10:01:09.308Z,-1.50
2018-12-05T10:03:52.221Z,-1.50
2018-12-05T10:06:43.688Z,-1.50
2018-12-05T10:09:27.238Z,-1.50
2018-12-05T10:12:04.290Z,-1.50
2018-12-05T10:14:44.645Z,-1.40
2018-12-05T10:17:21.175Z,-1.40
2018-12-05T10:19:56.148Z,-1.40
2018-12-05T10:22:30.608Z,-1.40
2018-12-05T10:25:10.546Z,-1.40
2018-12-05T10:27:45.617Z,-1.40
2018-12-05T10:30:23.247Z,-1.50
2018-12-05T10:32:59.290Z,-1.50
2018-12-05T10:35:35.535Z,-1.50
2018-12-05T10:38:09.732Z,-1.50
2018-12-05T10:40:51.114Z,-1.50
2018-12-05T10:43:26.116Z,-1.60
2018-12-05T10:46:03.101Z,-1.50
2018-12-05T10:48:40.750Z,-1.50
2018-12-05T10:51:20.405Z,-1.50
2018-12-05T10:53:57.123Z,-1.50
2018-12-05T10:56:31.238Z,-1.50
2018-12-05T10:59:05.229Z,-1.50
2018-12-05T11:01:55.290Z,-1.40
2018-12-05T11:04:45.529Z,-1.50
2018-12-05T11:07:35.975Z,-1.50
2018-12-05T11:10:26.585Z,-1.50
2018-12-05T11:13:16.597Z,-1.50
2018-12-05T11:16:23.817Z,-1.60
2018-12-05T11:19:13.975Z,-1.60
2018-12-05T11:22:07.544Z,-1.60
2018-12-05T11:24:50.239Z,-1.60
2018-12-05T11:27:25.586Z,-1.60
2018-12-05T11:30:06.456Z,-1.60
2018-12-05T11:32:42.598Z,-1.60
2018-12-05T11:35:17.652Z,-1.60
2018-12-05T11:37:55.648Z,-1.70
2018-12-05T11:40:32.098Z,-1.70
2018-12-05T11:43:08.026Z,-1.70
2018-12-05T11:45:47.970Z,-1.70
2018-12-05T11:48:24.403Z,-1.70
2018-12-05T11:50:58.748Z,-1.70
2018-12-05T11:53:35.171Z,-1.70
2018-12-05T11:56:12.630Z,-1.70
2018-12-05T11:58:49.625Z,-1.70
2018-12-05T12:01:24.527Z,-1.70
2018-12-05T12:03:58.588Z,-1.80
2018-12-05T12:06:32.668Z,-1.80
2018-12-05T12:09:09.884Z,-1.80
2018-12-05T12:11:45.414Z,-1.80
2018-12-05T12:14:22.026Z,-1.80
2018-12-05T12:16:56.263Z,-1.80
2018-12-05T12:19:31.904Z,-1.90
2018-12-05T12:22:08.831Z,-1.90
2018-12-05T12:24:43.403Z,-1.80
2018-12-05T12:27:17.419Z,-1.90
2018-12-05T12:29:53.144Z,-1.90
2018-12-05T12:32:27.228Z,-1.90
2018-12-05T12:35:03.007Z,-1.90
2018-12-05T12:37:40.795Z,-1.90
2018-12-05T12:40:15.823Z,-1.90
2018-12-05T12:42:51.461Z,-1.80
2018-12-05T12:45:27.198Z,-1.80
2018-12-05T12:48:21.372Z,-1.80
2018-12-05T12:51:23.694Z,-1.80
2018-12-05T12:53:59.598Z,-1.80
2018-12-05T12:56:38.410Z,-1.80
2018-12-05T12:59:21.005Z,-1.80
2018-12-05T13:02:00.049Z,-1.90
2018-12-05T13:04:52.268Z,-1.80
2018-12-05T13:07:48.818Z,-1.80
2018-12-05T13:10:34.760Z,-1.80
2018-12-05T13:13:10.588Z,-1.80
2018-12-05T13:15:46.270Z,-1.90
2018-12-05T13:18:24.554Z,-1.90
2018-12-05T13:21:02.614Z,-1.90
2018-12-05T13:23:39.813Z,-2.00
2018-12-05T13:26:16.428Z,-2.00
2018-12-05T13:28:50.655Z,-2.10
2018-12-05T13:31:24.775Z,-2.10
2018-12-05T13:34:05.505Z,-2.20
2018-12-05T13:36:40.701Z,-2.20
2018-12-05T13:39:16.466Z,-2.30
2018-12-05T13:41:53.198Z,-2.30
2018-12-05T13:44:29.134Z,-2.30
2018-12-05T13:47:06.392Z,-2.20
2018-12-05T13:49:43.985Z,-2.30
2018-12-05T13:52:18.077Z,-2.20
2018-12-05T13:54:52.243Z,-2.30
2018-12-05T13:57:33.385Z,-2.30
2018-12-05T14:00:11.667Z,-2.20
2018-12-05T14:02:55.869Z,-2.30
2018-12-05T14:08:49.463Z,-2.30
2018-12-05T14:14:21.486Z,-2.30
2018-12-05T14:16:56.170Z,-2.30
2018-12-05T14:22:29.279Z,-2.30
2018-12-05T14:25:04.864Z,-2.30
2018-12-05T14:27:41.486Z,-2.30
2018-12-05T14:30:15.669Z,-2.30
2018-12-05T14:32:52.645Z,-2.30
2018-12-05T14:35:29.770Z,-2.30
2018-12-05T14:38:04.902Z,-2.30
2018-12-05T14:40:43.986Z,-2.30
2018-12-05T14:43:18.700Z,-2.30
2018-12-05T14:45:54.123Z,-2.30
2018-12-05T14:48:28.329Z,-2.30
2018-12-05T14:51:04.679Z,-2.30
2018-12-05T14:53:39.492Z,-2.30
2018-12-05T14:56:15.530Z,-2.30
2018-12-05T14:58:51.504Z,-2.30
2018-12-05T15:01:26.334Z,-2.40
2018-12-05T15:04:00.341Z,-2.40
2018-12-05T15:06:36.921Z,-2.40
2018-12-05T15:09:15.432Z,-2.40
2018-12-05T15:11:57.146Z,-2.40
2018-12-05T15:14:34.319Z,-2.40
2018-12-05T15:17:08.421Z,-2.50
2018-12-05T15:19:43.430Z,-2.50
2018-12-05T15:22:17.645Z,-2.50
2018-12-05T15:24:53.560Z,-2.40
2018-12-05T15:27:32.577Z,-2.40
2018-12-05T15:30:10.888Z,-2.30
2018-12-05T15:32:47.206Z,-2.20
2018-12-05T15:35:25.181Z,-2.20
2018-12-05T15:38:01.576Z,-2.20
2018-12-05T15:40:36.278Z,-2.20
2018-12-05T15:43:10.523Z,-2.10
2018-12-05T15:45:44.661Z,-2.10
2018-12-05T15:48:20.787Z,-2.00
2018-12-05T15:51:03.755Z,-2.00
2018-12-05T15:53:39.080Z,-2.00
2018-12-05T15:56:16.405Z,-2.00
2018-12-05T15:58:52.722Z,-2.00
2018-12-05T16:01:31.558Z,-2.00
2018-12-05T16:04:08.205Z,-2.00
2018-12-05T16:06:45.210Z,-2.00
2018-12-05T16:09:21.895Z,-1.90
2018-12-05T16:11:59.821Z,-1.80
2018-12-05T16:14:35.239Z,-1.80
2018-12-05T16:17:11.670Z,-1.80
2018-12-05T16:19:49.228Z,-1.70
2018-12-05T16:22:27.350Z,-1.70
2018-12-05T16:25:02.528Z,-1.70
2018-12-05T16:27:38.783Z,-1.70
2018-12-05T16:30:15.649Z,-1.70
2018-12-05T16:32:52.089Z,-1.70
2018-12-05T16:35:31.443Z,-1.70
2018-12-05T16:38:08.573Z,-1.70
2018-12-05T16:40:45.940Z,-1.70
2018-12-05T16:43:21.644Z,-1.70
2018-12-05T16:45:55.666Z,-1.60
2018-12-05T16:48:30.027Z,-1.50
2018-12-05T16:51:05.463Z,-1.40
2018-12-05T16:54:22.216Z,-1.30
2018-12-05T16:56:56.443Z,-1.30
2018-12-05T16:59:30.596Z,-1.20
2018-12-05T17:02:11.373Z,-1.20
2018-12-05T17:04:47.018Z,-1.10
2018-12-05T17:07:23.131Z,-1.10
2018-12-05T17:09:57.309Z,-1.10
2018-12-05T17:12:32.223Z,-1.00
2018-12-05T17:15:07.498Z,-0.90
2018-12-05T17:17:42.687Z,-0.90
2018-12-05T17:20:18.836Z,-0.80
2018-12-05T17:22:55.067Z,-0.70
2018-12-05T17:25:29.888Z,-0.60
2018-12-05T17:28:10.609Z,-0.50
2018-12-05T17:30:47.223Z,-0.40
2018-12-05T17:33:25.797Z,-0.30
2018-12-05T17:36:02.892Z,-0.30
2018-12-05T17:38:37.172Z,-0.20
2018-12-05T17:41:11.472Z,-0.10
2018-12-05T17:43:45.798Z,0.10
2018-12-05T17:46:22.543Z,0.20
2018-12-05T17:48:58.543Z,0.30
2018-12-05T17:51:32.669Z,0.40
2018-12-05T17:54:14.526Z,0.50
2018-12-05T17:56:45.401Z,0.50
2018-12-05T18:07:26.520Z,0.80
2018-12-05T18:10:59.767Z,0.90
2018-12-05T18:14:13.214Z,1.00
2018-12-05T18:27:18.773Z,1.30
2018-12-05T18:31:14.676Z,1.40
2018-12-05T18:33:51.711Z,1.60
2018-12-05T18:36:36.788Z,1.80
2018-12-05T18:50:13.310Z,2.20
2018-12-05T19:15:30.050Z,3.00
2018-12-05T19:18:05.338Z,3.10
2018-12-05T19:20:39.677Z,3.20
2018-12-05T19:23:13.953Z,3.20
2018-12-05T19:25:49.999Z,3.30
2018-12-05T19:28:26.767Z,3.30
2018-12-05T19:31:02.800Z,3.40
2018-12-05T19:33:36.978Z,3.50
2018-12-05T19:36:11.989Z,3.50
2018-12-05T19:38:46.245Z,3.60
2018-12-05T19:41:26.655Z,3.60
2018-12-05T19:44:00.892Z,3.70
2018-12-05T19:46:35.918Z,3.70
2018-12-05T19:49:10.653Z,3.70
2018-12-05T19:51:45.944Z,3.80
2018-12-05T19:54:21.777Z,3.90
2018-12-05T19:56:55.995Z,4.00
2018-12-05T19:59:30.182Z,4.10
2018-12-05T20:02:04.293Z,4.00
2018-12-05T20:04:38.994Z,4.10
2018-12-05T20:07:16.057Z,4.10
2018-12-05T20:09:50.041Z,4.10
2018-12-05T20:12:24.344Z,4.20
2018-12-05T20:15:01.818Z,4.30
2018-12-05T20:17:36.631Z,4.30
2018-12-05T20:20:13.698Z,4.40
2018-12-05T20:22:48.935Z,4.50
2018-12-05T20:25:22.995Z,4.60
2018-12-05T20:27:58.408Z,4.60
2018-12-05T20:30:35.251Z,4.70
2018-12-05T20:33:11.913Z,4.70
2018-12-05T20:35:47.375Z,4.90
2018-12-05T20:38:23.699Z,5.00
2018-12-05T20:40:59.148Z,4.90
2018-12-05T20:43:33.372Z,4.90
2018-12-05T20:46:08.028Z,4.90
2018-12-05T20:48:46.135Z,5.00
2018-12-05T20:51:20.207Z,5.10
2018-12-05T20:53:54.994Z,5.10
2018-12-05T20:56:29.217Z,5.10
2018-12-05T20:59:03.405Z,5.10
2018-12-05T21:01:37.482Z,5.10
2018-12-05T21:04:12.705Z,5.20
2018-12-05T21:06:47.594Z,5.20
2018-12-05T21:09:33.165Z,5.20
2018-12-05T21:12:21.161Z,5.20
2018-12-05T21:14:56.874Z,5.30
2018-12-05T21:17:31.167Z,5.40
2018-12-05T21:20:06.983Z,5.50
2018-12-05T21:22:47.400Z,5.70
2018-12-05T21:25:22.880Z,5.80
2018-12-05T21:27:57.996Z,5.90
2018-12-05T21:30:34.441Z,6.10
2018-12-05T21:33:11.208Z,6.10
2018-12-05T21:35:45.458Z,6.20
2018-12-05T21:38:22.817Z,6.30
2018-12-05T21:40:58.546Z,6.30
2018-12-05T21:43:32.716Z,6.30
2018-12-05T21:46:08.551Z,6.40
2018-12-05T21:48:42.951Z,6.50
2018-12-05T21:51:18.076Z,6.60
2018-12-05T21:53:52.139Z,6.60
2018-12-05T21:56:27.517Z,6.70
2018-12-05T21:59:02.307Z,6.80
2018-12-05T22:01:40.807Z,6.80
2018-12-05T22:04:15.124Z,6.90
2018-12-05T22:06:49.493Z,7.00
2018-12-05T22:09:25.941Z,7.10
2018-12-05T22:12:07.380Z,7.10
2018-12-05T22:14:42.376Z,7.30
2018-12-05T22:17:26.364Z,7.30
2018-12-05T22:20:00.583Z,7.20
2018-12-05T22:22:34.862Z,7.20
2018-12-05T22:25:09.041Z,7.20
2018-12-05T22:27:43.325Z,7.30
2018-12-05T22:30:18.441Z,7.30
2018-12-05T22:32:54.039Z,7.30
2018-12-05T22:35:28.501Z,7.40
2018-12-05T22:38:03.682Z,7.40
2018-12-05T22:40:37.873Z,7.50
2018-12-05T22:43:17.396Z,7.60
2018-12-05T22:45:52.293Z,7.60
2018-12-05T22:48:31.277Z,7.50
2018-12-05T22:51:09.859Z,7.50
2018-12-05T22:53:44.250Z,7.60
2018-12-05T22:56:18.569Z,7.60
2018-12-05T22:58:54.411Z,7.60
2018-12-05T23:01:29.462Z,7.60
2018-12-05T23:04:05.363Z,7.60
2018-12-05T23:06:40.678Z,7.50
2018-12-05T23:09:16.734Z,7.40
2018-12-05T23:13:44.509Z,7.30
2018-12-05T23:16:19.875Z,7.20
2018-12-05T23:18:55.716Z,7.10
2018-12-05T23:21:31.199Z,6.80
2018-12-05T23:24:07.595Z,6.50
2018-12-05T23:26:44.336Z,6.20
2018-12-05T23:29:18.514Z,6.00
2018-12-05T23:31:57.288Z,5.80
2018-12-05T23:34:36.774Z,5.70
2018-12-05T23:37:13.858Z,5.40
2018-12-05T23:39:52.079Z,5.30
2018-12-05T23:42:29.091Z,5.10
2018-12-05T23:45:03.568Z,4.90
2018-12-05T23:47:47.432Z,4.80
2018-12-05T23:50:23.733Z,4.70
2018-12-05T23:52:57.968Z,4.60
2018-12-05T23:55:34.787Z,4.40
2018-12-05T23:58:14.518Z,4.30
